Afghanistan

Resources for Afghanistan vACC (Inactive)

Active Sector File
OAKX-ES-BETA_20180916155651-181001-0001.zip | Release Date 9/16/2018 | Downloads 31 | File SizeĀ 10.19 MBĀ 

VATSIM Metar for Afghanistan
OAKN 220956Z VRB06KT 9999 CLR 13/M04 A3024 RMK AO2A SLP227 WND DATA ESTMD T01251040
OAMS 220950Z 07013KT 9000 SCT015 BKN020 BKN030 04/M00 Q1030 WHT BLU
OAJL 220955Z 00000KT 9999 FEW045 15/01 A3027 RMK AO2A SLPNO WND DATA ESTMD T01510011
OAHR 220955Z VRB02KT 9000 SCT030 BKN090 09/03 Q1024 RMK A3027 BLU
OAIX 221038Z 20004KT 4000 HZ FEW100 04/M02 A3026 RMK AO2A SLP239
OAKB 221050Z 23005KT 9999 FEW035 02/M08 Q1026 NOSIG RMK A3030 BLU BLU